createdAt,value
2018-06-21T00:00:53.522Z,75.50
2018-06-21T00:01:53.435Z,70.30
2018-06-21T00:02:53.455Z,71.40
2018-06-21T00:03:53.453Z,71.10
2018-06-21T00:04:53.465Z,80.20
2018-06-21T00:05:53.653Z,79.40
2018-06-21T00:06:53.497Z,76.80
2018-06-21T00:07:53.530Z,70.50
2018-06-21T00:08:53.525Z,67.20
2018-06-21T00:09:53.551Z,66.00
2018-06-21T00:10:53.648Z,61.50
2018-06-21T00:11:53.580Z,60.00
2018-06-21T00:12:53.581Z,56.90
2018-06-21T00:13:53.602Z,54.60
2018-06-21T00:14:53.630Z,58.50
2018-06-21T00:15:53.775Z,55.40
2018-06-21T00:16:53.658Z,55.30
2018-06-21T00:17:53.662Z,56.30
2018-06-21T00:18:53.684Z,54.80
2018-06-21T00:19:53.705Z,57.90
2018-06-21T00:20:53.816Z,58.00
2018-06-21T00:21:53.727Z,60.60
2018-06-21T00:22:53.736Z,58.60
2018-06-21T00:23:53.740Z,57.90
2018-06-21T00:24:53.774Z,56.10
2018-06-21T00:25:53.785Z,56.60
2018-06-21T00:26:53.888Z,54.80
2018-06-21T00:27:53.814Z,56.60
2018-06-21T00:28:53.815Z,56.80
2018-06-21T00:29:53.851Z,57.60
2018-06-21T00:30:53.846Z,61.00
2018-06-21T00:31:53.978Z,64.90
2018-06-21T00:32:53.890Z,65.40
2018-06-21T00:33:53.903Z,64.30
2018-06-21T00:34:53.919Z,67.30
2018-06-21T00:35:53.931Z,67.20
2018-06-21T00:36:54.075Z,64.90
2018-06-21T00:37:53.933Z,62.80
2018-06-21T00:38:53.956Z,62.10
2018-06-21T00:39:53.974Z,64.60
2018-06-21T00:40:54.004Z,66.90
2018-06-21T00:41:54.120Z,66.10
2018-06-21T00:42:54.010Z,66.50
2018-06-21T00:43:54.051Z,67.60
2018-06-21T00:44:54.064Z,68.10
2018-06-21T00:45:54.049Z,68.60
2018-06-21T00:46:54.165Z,67.90
2018-06-21T00:47:54.104Z,68.10
2018-06-21T00:48:54.109Z,68.90
2018-06-21T00:49:54.137Z,65.90
2018-06-21T00:50:54.151Z,66.70
2018-06-21T00:51:54.319Z,67.40
2018-06-21T00:52:54.152Z,69.20
2018-06-21T00:53:54.161Z,71.70
2018-06-21T00:54:54.178Z,68.20
2018-06-21T00:55:54.194Z,66.60
2018-06-21T00:56:54.224Z,66.20
2018-06-21T00:57:54.372Z,65.20
2018-06-21T00:58:54.245Z,63.80
2018-06-21T00:59:54.252Z,64.10
2018-06-21T01:00:54.263Z,64.20
2018-06-21T01:01:54.280Z,66.70
2018-06-21T01:02:54.397Z,64.60
2018-06-21T01:03:54.302Z,67.50
2018-06-21T01:04:54.334Z,69.50
2018-06-21T01:05:54.334Z,74.90
2018-06-21T01:06:54.378Z,74.00
2018-06-21T01:07:54.462Z,71.30
2018-06-21T01:08:54.405Z,71.80
2018-06-21T01:09:54.404Z,73.30
2018-06-21T01:10:54.403Z,72.60
2018-06-21T01:11:54.445Z,73.50
2018-06-21T01:12:54.536Z,73.40
2018-06-21T01:13:54.475Z,72.40
2018-06-21T01:14:54.466Z,73.30
2018-06-21T01:15:54.485Z,70.50
2018-06-21T01:16:54.517Z,73.80
2018-06-21T01:17:54.628Z,70.30
2018-06-21T01:18:54.527Z,76.20
2018-06-21T01:19:54.561Z,79.90
2018-06-21T01:20:54.575Z,80.20
2018-06-21T01:21:54.559Z,68.20
2018-06-21T01:22:54.719Z,68.60
2018-06-21T01:23:54.615Z,66.90
2018-06-21T01:24:54.600Z,74.90
2018-06-21T01:25:54.616Z,74.80
2018-06-21T01:26:54.637Z,73.40
2018-06-21T01:27:54.752Z,73.50
2018-06-21T01:28:54.690Z,74.20
2018-06-21T01:29:54.700Z,77.30
2018-06-21T01:30:54.691Z,63.30
2018-06-21T01:31:54.712Z,61.90
2018-06-21T01:32:54.866Z,60.20
2018-06-21T01:33:54.751Z,65.70
2018-06-21T01:34:54.740Z,70.00
2018-06-21T01:35:54.761Z,70.00
2018-06-21T01:36:54.780Z,71.30
2018-06-21T01:38:54.926Z,72.20
2018-06-21T01:39:54.836Z,71.10
2018-06-21T01:40:54.831Z,69.70
2018-06-21T01:41:54.835Z,70.90
2018-06-21T01:42:54.853Z,66.80
2018-06-21T01:43:54.974Z,69.00
2018-06-21T01:44:54.909Z,58.10
2018-06-21T01:45:54.918Z,49.20
2018-06-21T01:46:54.914Z,57.70
2018-06-21T01:47:54.930Z,59.90
2018-06-21T01:48:55.038Z,62.20
2018-06-21T01:49:54.948Z,48.40
2018-06-21T01:50:54.960Z,46.30
2018-06-21T01:51:54.976Z,47.10
2018-06-21T01:52:54.997Z,45.50
2018-06-21T01:53:55.132Z,46.30
2018-06-21T01:54:55.050Z,49.50
2018-06-21T01:55:55.039Z,49.20
2018-06-21T01:56:55.047Z,49.30
2018-06-21T01:57:55.074Z,49.70
2018-06-21T01:58:55.233Z,51.80
2018-06-21T01:59:55.086Z,53.60
2018-06-21T02:00:55.102Z,54.30
2018-06-21T02:01:55.115Z,54.90
2018-06-21T02:02:55.151Z,57.50
2018-06-21T02:03:55.153Z,57.30
2018-06-21T02:04:55.335Z,59.70
2018-06-21T02:05:55.170Z,55.40
2018-06-21T02:06:55.208Z,44.30
2018-06-21T02:07:55.199Z,43.40
2018-06-21T02:08:55.208Z,43.50
2018-06-21T02:09:55.388Z,44.80
2018-06-21T02:10:55.238Z,44.70
2018-06-21T02:11:55.278Z,45.80
2018-06-21T02:12:55.263Z,44.70
2018-06-21T02:13:55.301Z,41.30
2018-06-21T02:14:55.417Z,42.50
2018-06-21T02:15:55.308Z,44.20
2018-06-21T02:16:55.319Z,44.30
2018-06-21T02:17:55.334Z,46.00
2018-06-21T02:18:55.344Z,45.50
2018-06-21T02:19:55.508Z,46.50
2018-06-21T02:20:55.395Z,44.00
2018-06-21T02:21:55.409Z,44.80
2018-06-21T02:22:55.398Z,42.80
2018-06-21T02:23:55.415Z,42.70
2018-06-21T02:24:55.603Z,42.60
2018-06-21T02:25:55.466Z,41.80
2018-06-21T02:26:55.475Z,44.10
2018-06-21T02:27:55.473Z,43.80
2018-06-21T02:28:55.504Z,43.60
2018-06-21T02:29:55.619Z,38.90
2018-06-21T02:30:55.512Z,38.30
2018-06-21T02:31:55.546Z,37.00
2018-06-21T02:32:55.536Z,36.90
2018-06-21T02:33:55.548Z,37.00
2018-06-21T02:34:55.662Z,35.70
2018-06-21T02:35:55.585Z,34.80
2018-06-21T02:36:55.588Z,35.20
2018-06-21T02:37:55.603Z,33.30
2018-06-21T02:38:55.615Z,33.70
2018-06-21T02:39:55.792Z,35.40
2018-06-21T02:40:55.664Z,46.70
2018-06-21T02:41:55.652Z,57.90
2018-06-21T02:42:55.673Z,57.00
2018-06-21T02:43:55.683Z,52.60
2018-06-21T02:44:55.856Z,47.90
2018-06-21T02:45:55.722Z,48.50
2018-06-21T02:46:55.715Z,38.00
2018-06-21T02:47:55.758Z,36.00
2018-06-21T02:48:55.758Z,34.40
2018-06-21T02:49:55.857Z,34.00
2018-06-21T02:50:55.771Z,33.40
2018-06-21T02:51:55.788Z,33.80
2018-06-21T02:52:55.843Z,33.70
2018-06-21T02:53:55.808Z,32.60
2018-06-21T02:54:55.930Z,32.20
2018-06-21T02:55:55.845Z,32.10
2018-06-21T02:56:55.848Z,34.60
2018-06-21T02:57:55.875Z,34.10
2018-06-21T02:58:55.880Z,40.60
2018-06-21T02:59:55.994Z,44.20
2018-06-21T03:00:55.904Z,44.90
2018-06-21T03:01:55.917Z,44.50
2018-06-21T03:02:55.943Z,41.40
2018-06-21T03:03:55.966Z,41.70
2018-06-21T03:04:56.056Z,40.20
2018-06-21T03:05:55.972Z,40.80
2018-06-21T03:06:55.990Z,44.80
2018-06-21T03:07:55.996Z,43.40
2018-06-21T03:08:56.005Z,50.50
2018-06-21T03:09:56.182Z,53.60
2018-06-21T03:10:56.040Z,65.20
2018-06-21T03:11:56.056Z,49.20
2018-06-21T03:12:56.069Z,44.80
2018-06-21T03:13:56.075Z,48.80
2018-06-21T03:14:56.116Z,51.10
2018-06-21T03:15:56.202Z,49.40
2018-06-21T03:16:56.140Z,42.90
2018-06-21T03:17:56.125Z,50.10
2018-06-21T03:18:56.166Z,47.90
2018-06-21T03:19:56.170Z,35.80
2018-06-21T03:20:56.184Z,37.80
2018-06-21T03:21:56.378Z,38.50
2018-06-21T03:22:56.224Z,36.80
2018-06-21T03:23:56.207Z,36.10
2018-06-21T03:24:56.230Z,35.50
2018-06-21T03:25:56.244Z,35.40
2018-06-21T03:26:56.350Z,34.60
2018-06-21T03:27:56.286Z,34.40
2018-06-21T03:28:56.290Z,33.80
2018-06-21T03:29:56.288Z,33.40
2018-06-21T03:30:56.294Z,35.50
2018-06-21T03:31:56.415Z,39.80
2018-06-21T03:32:56.336Z,43.80
2018-06-21T03:33:56.357Z,55.70
2018-06-21T03:34:56.382Z,83.40
2018-06-21T03:35:56.373Z,91.60
2018-06-21T03:36:56.557Z,105.90
2018-06-21T03:37:56.398Z,112.90
2018-06-21T03:38:56.433Z,80.60
2018-06-21T03:39:56.427Z,57.90
2018-06-21T03:40:56.432Z,56.00
2018-06-21T03:41:56.567Z,50.90
2018-06-21T03:42:56.462Z,48.40
2018-06-21T03:43:56.472Z,47.80
2018-06-21T03:44:56.498Z,50.00
2018-06-21T03:45:56.496Z,50.00
2018-06-21T03:46:56.615Z,49.60
2018-06-21T03:47:56.540Z,48.20
2018-06-21T03:48:56.566Z,51.80
2018-06-21T03:49:56.579Z,46.50
2018-06-21T03:50:56.584Z,47.20
2018-06-21T03:51:56.735Z,45.70
2018-06-21T03:52:56.586Z,44.50
2018-06-21T03:53:56.607Z,43.70
2018-06-21T03:54:56.623Z,42.90
2018-06-21T03:55:56.639Z,45.50
2018-06-21T03:56:56.814Z,63.40
2018-06-21T03:57:56.673Z,96.30
2018-06-21T03:58:56.690Z,122.80
2018-06-21T03:59:56.678Z,112.50
2018-06-21T04:00:56.719Z,101.90
2018-06-21T04:01:56.804Z,100.70
2018-06-21T04:02:56.725Z,80.30
2018-06-21T04:03:56.735Z,57.70
2018-06-21T04:04:56.743Z,50.40
2018-06-21T04:05:56.777Z,49.30
2018-06-21T04:06:56.944Z,47.00
2018-06-21T04:07:56.779Z,48.80
2018-06-21T04:08:56.816Z,48.30
2018-06-21T04:09:56.805Z,45.00
2018-06-21T04:10:56.841Z,44.60
2018-06-21T04:11:56.960Z,44.80
2018-06-21T04:12:56.842Z,43.20
2018-06-21T04:13:56.858Z,43.90
2018-06-21T04:14:56.864Z,44.90
2018-06-21T04:15:56.881Z,43.70
2018-06-21T04:16:57.019Z,49.40
2018-06-21T04:17:56.935Z,49.90
2018-06-21T04:18:56.914Z,51.00
2018-06-21T04:19:56.942Z,49.50
2018-06-21T04:20:56.953Z,49.40
2018-06-21T04:21:57.053Z,49.10
2018-06-21T04:22:56.999Z,52.40
2018-06-21T04:23:56.986Z,61.00
2018-06-21T04:24:57.009Z,56.30
2018-06-21T04:25:57.006Z,65.60
2018-06-21T04:26:57.145Z,65.20
2018-06-21T04:27:57.029Z,63.10
2018-06-21T04:28:57.044Z,63.30
2018-06-21T04:29:57.082Z,58.70
2018-06-21T04:30:57.070Z,57.80
2018-06-21T04:31:57.182Z,59.10
2018-06-21T04:32:57.096Z,57.30
2018-06-21T04:33:57.108Z,57.30
2018-06-21T04:34:57.121Z,57.20
2018-06-21T04:35:57.135Z,57.10
2018-06-21T04:36:57.173Z,49.70
2018-06-21T04:37:57.314Z,50.40
2018-06-21T04:38:57.170Z,49.10
2018-06-21T04:39:57.178Z,50.60
2018-06-21T04:40:57.213Z,51.20
2018-06-21T04:41:57.208Z,50.20
2018-06-21T04:42:57.401Z,52.10
2018-06-21T04:43:57.260Z,54.10
2018-06-21T04:44:57.254Z,52.50
2018-06-21T04:45:57.412Z,48.60
2018-06-21T04:46:57.285Z,65.40
2018-06-21T04:47:57.386Z,69.20
2018-06-21T04:48:57.301Z,70.40
2018-06-21T04:49:57.307Z,61.60
2018-06-21T04:50:57.347Z,84.40
2018-06-21T04:51:57.340Z,88.90
2018-06-21T04:52:57.465Z,93.50
2018-06-21T04:53:57.386Z,94.80
2018-06-21T04:54:57.398Z,95.70
2018-06-21T04:55:57.385Z,107.00
2018-06-21T04:56:57.403Z,97.30
2018-06-21T04:57:57.522Z,105.90
2018-06-21T04:58:57.451Z,104.60
2018-06-21T04:59:57.450Z,106.50
2018-06-21T05:00:57.475Z,109.70
2018-06-21T05:01:57.473Z,115.50
2018-06-21T05:02:57.603Z,115.10
2018-06-21T05:03:57.486Z,114.40
2018-06-21T05:04:57.525Z,115.00
2018-06-21T05:05:57.516Z,118.00
2018-06-21T05:06:57.549Z,115.80
2018-06-21T05:07:57.633Z,116.20
2018-06-21T05:08:57.549Z,119.10
2018-06-21T05:09:57.576Z,119.50
2018-06-21T05:10:57.599Z,121.10
2018-06-21T05:11:57.582Z,118.10
2018-06-21T05:12:57.698Z,121.60
2018-06-21T05:13:57.634Z,120.70
2018-06-21T05:14:57.623Z,119.20
2018-06-21T05:15:57.635Z,116.00
2018-06-21T05:16:57.647Z,118.50
2018-06-21T05:17:57.812Z,117.30
2018-06-21T05:18:57.704Z,120.60
2018-06-21T05:19:57.684Z,115.50
2018-06-21T05:20:57.728Z,113.90
2018-06-21T05:21:57.710Z,115.40
2018-06-21T05:22:57.816Z,113.80
2018-06-21T05:23:57.760Z,114.70
2018-06-21T05:24:57.753Z,113.30
2018-06-21T05:25:57.789Z,114.80
2018-06-21T05:26:57.776Z,112.30
2018-06-21T05:27:57.947Z,113.80
2018-06-21T05:28:57.797Z,114.10
2018-06-21T05:29:57.834Z,111.10
2018-06-21T05:30:57.851Z,117.00
2018-06-21T05:31:57.835Z,116.70
2018-06-21T05:32:57.972Z,121.20
2018-06-21T05:33:57.857Z,122.00
2018-06-21T05:34:57.869Z,123.60
2018-06-21T05:35:57.881Z,123.90
2018-06-21T05:36:57.921Z,118.70
2018-06-21T05:37:58.036Z,115.90
2018-06-21T05:38:57.950Z,111.70
2018-06-21T05:39:57.945Z,110.70
2018-06-21T05:40:57.971Z,112.20
2018-06-21T05:41:57.986Z,111.70
2018-06-21T05:42:58.073Z,109.00
2018-06-21T05:43:57.993Z,107.70
2018-06-21T05:44:57.995Z,108.90
2018-06-21T05:45:58.031Z,107.20
2018-06-21T05:46:58.031Z,109.30
2018-06-21T05:47:58.178Z,111.40
2018-06-21T05:48:58.047Z,106.10
2018-06-21T05:49:58.059Z,107.00
2018-06-21T05:50:58.079Z,106.60
2018-06-21T05:51:58.081Z,103.60
2018-06-21T05:52:58.117Z,106.30
2018-06-21T05:53:58.204Z,102.80
2018-06-21T05:54:58.129Z,103.90
2018-06-21T05:55:58.154Z,100.10
2018-06-21T05:56:58.172Z,100.50
2018-06-21T05:57:58.152Z,99.50
2018-06-21T05:58:58.327Z,96.30
2018-06-21T05:59:58.204Z,101.00
2018-06-21T06:00:58.191Z,99.30
2018-06-21T06:01:58.276Z,102.70
2018-06-21T06:02:58.239Z,102.20
2018-06-21T06:03:58.378Z,105.50
2018-06-21T06:04:58.240Z,103.30
2018-06-21T06:05:58.259Z,100.70
2018-06-21T06:06:58.283Z,112.40
2018-06-21T06:07:58.278Z,115.90
2018-06-21T06:08:58.463Z,117.60
2018-06-21T06:09:58.329Z,119.10
2018-06-21T06:10:58.317Z,126.10
2018-06-21T06:11:58.325Z,125.00
2018-06-21T06:12:58.366Z,124.90
2018-06-21T06:13:58.575Z,124.30
2018-06-21T06:14:58.361Z,123.00
2018-06-21T06:15:58.401Z,130.60
2018-06-21T06:16:58.416Z,125.90
2018-06-21T06:17:58.428Z,125.30
2018-06-21T06:18:58.543Z,127.70
2018-06-21T06:19:58.484Z,125.90
2018-06-21T06:20:58.436Z,123.30
2018-06-21T06:21:58.446Z,120.60
2018-06-21T06:22:58.463Z,117.30
2018-06-21T06:23:58.597Z,112.90
2018-06-21T06:24:58.486Z,112.20
2018-06-21T06:25:58.524Z,110.70
2018-06-21T06:26:58.509Z,110.30
2018-06-21T06:27:58.532Z,105.20
2018-06-21T06:28:58.686Z,109.60
2018-06-21T06:29:58.552Z,101.70
2018-06-21T06:30:58.562Z,104.00
2018-06-21T06:31:58.597Z,101.30
2018-06-21T06:32:58.612Z,99.90
2018-06-21T06:33:58.693Z,98.80
2018-06-21T06:34:58.605Z,99.10
2018-06-21T06:35:58.619Z,97.90
2018-06-21T06:36:58.637Z,97.90
2018-06-21T06:37:58.667Z,96.30
2018-06-21T06:38:58.758Z,95.00
2018-06-21T06:39:58.668Z,93.20
2018-06-21T06:40:58.692Z,101.80
2018-06-21T06:41:58.693Z,96.40
2018-06-21T06:42:58.732Z,96.70
2018-06-21T06:43:58.841Z,97.00
2018-06-21T06:44:58.733Z,94.60
2018-06-21T06:45:58.754Z,101.00
2018-06-21T06:46:58.786Z,95.70
2018-06-21T06:47:58.767Z,94.70
2018-06-21T06:48:58.896Z,99.00
2018-06-21T06:49:58.801Z,99.60
2018-06-21T06:50:58.801Z,102.50
2018-06-21T06:51:58.838Z,100.20
2018-06-21T06:52:58.839Z,99.90
2018-06-21T06:53:58.937Z,94.30
2018-06-21T06:54:58.878Z,96.20
2018-06-21T06:55:58.874Z,95.00
2018-06-21T06:56:58.872Z,91.50
2018-06-21T06:57:58.891Z,93.80
2018-06-21T06:58:59.000Z,93.40
2018-06-21T06:59:58.916Z,90.50
2018-06-21T07:00:58.931Z,89.50
2018-06-21T07:01:58.965Z,88.50
2018-06-21T07:02:58.972Z,89.20
2018-06-21T07:03:59.084Z,89.10
2018-06-21T07:04:58.995Z,89.00
2018-06-21T07:05:58.979Z,89.00
2018-06-21T07:06:59.021Z,89.30
2018-06-21T07:07:59.044Z,87.40
2018-06-21T07:08:59.123Z,87.90
2018-06-21T07:09:59.055Z,91.10
2018-06-21T07:10:59.087Z,91.40
2018-06-21T07:11:59.083Z,90.00
2018-06-21T07:12:59.095Z,91.80
2018-06-21T07:13:59.081Z,89.00
2018-06-21T07:14:59.243Z,88.90
2018-06-21T07:15:59.111Z,90.80
2018-06-21T07:16:59.130Z,92.70
2018-06-21T07:17:59.151Z,88.50
2018-06-21T07:18:59.166Z,91.30
2018-06-21T07:19:59.302Z,94.60
2018-06-21T07:20:59.192Z,93.10
2018-06-21T07:21:59.202Z,93.90
2018-06-21T07:22:59.187Z,92.20
2018-06-21T07:23:59.202Z,90.90
2018-06-21T07:24:59.363Z,89.60
2018-06-21T07:25:59.236Z,90.10
2018-06-21T07:26:59.249Z,87.50
2018-06-21T07:27:59.263Z,85.80
2018-06-21T07:28:59.260Z,85.40
2018-06-21T07:29:59.402Z,82.10
2018-06-21T07:30:59.283Z,79.60
2018-06-21T07:31:59.309Z,78.80
2018-06-21T07:32:59.306Z,81.30
2018-06-21T07:33:59.343Z,80.60
2018-06-21T07:34:59.505Z,76.50
2018-06-21T07:35:59.346Z,78.60
2018-06-21T07:36:59.354Z,77.80
2018-06-21T07:37:59.380Z,78.30
2018-06-21T07:38:59.411Z,78.10
2018-06-21T07:39:59.489Z,77.90
2018-06-21T07:40:59.404Z,77.10
2018-06-21T07:41:59.436Z,76.10
2018-06-21T07:42:59.426Z,76.70
2018-06-21T07:43:59.439Z,77.60
2018-06-21T07:44:59.598Z,78.00
2018-06-21T07:45:59.467Z,78.10
2018-06-21T07:46:59.594Z,78.30
2018-06-21T07:47:59.486Z,77.50
2018-06-21T07:48:59.508Z,79.50
2018-06-21T07:49:59.611Z,78.70
2018-06-21T07:50:59.523Z,80.70
2018-06-21T07:51:59.529Z,78.80
2018-06-21T07:52:59.546Z,79.20
2018-06-21T07:53:59.552Z,78.00
2018-06-21T07:54:59.669Z,77.80
2018-06-21T07:55:59.580Z,76.40
2018-06-21T07:56:59.597Z,75.60
2018-06-21T07:57:59.629Z,75.10
2018-06-21T07:58:59.668Z,75.20
2018-06-21T07:59:59.725Z,77.20
2018-06-21T08:00:59.662Z,74.60
2018-06-21T08:01:59.678Z,72.90
2018-06-21T08:02:59.673Z,71.30
2018-06-21T08:03:59.674Z,68.50
2018-06-21T08:04:59.826Z,71.60
2018-06-21T08:05:59.698Z,67.50
2018-06-21T08:06:59.705Z,68.40
2018-06-21T08:07:59.730Z,70.80
2018-06-21T08:08:59.738Z,68.80
2018-06-21T08:09:59.840Z,69.30
2018-06-21T08:10:59.753Z,68.50
2018-06-21T08:11:59.781Z,69.50
2018-06-21T08:12:59.856Z,67.30
2018-06-21T08:13:59.787Z,68.30
2018-06-21T08:14:59.933Z,68.60
2018-06-21T08:15:59.822Z,68.40
2018-06-21T08:16:59.826Z,67.30
2018-06-21T08:17:59.863Z,68.10
2018-06-21T08:18:59.856Z,68.30
2018-06-21T08:19:59.992Z,68.50
2018-06-21T08:20:59.882Z,69.70
2018-06-21T08:21:59.897Z,67.30
2018-06-21T08:22:59.902Z,70.50
2018-06-21T08:23:59.900Z,68.40
2018-06-21T08:25:00.042Z,66.80
2018-06-21T08:25:59.936Z,67.60
2018-06-21T08:26:59.960Z,69.50
2018-06-21T08:27:59.964Z,67.50
2018-06-21T08:28:59.969Z,69.80
2018-06-21T08:30:00.163Z,70.00
2018-06-21T08:31:00.020Z,69.90
2018-06-21T08:31:59.997Z,72.40
2018-06-21T08:33:00.011Z,72.10
2018-06-21T08:34:00.030Z,71.30
2018-06-21T08:35:00.039Z,70.90
2018-06-21T08:36:00.157Z,72.40
2018-06-21T08:37:00.084Z,71.50
2018-06-21T08:38:00.076Z,72.30
2018-06-21T08:39:00.195Z,76.20
2018-06-21T08:40:00.121Z,74.20
2018-06-21T08:41:00.232Z,75.10
2018-06-21T08:42:00.116Z,73.20
2018-06-21T08:43:00.153Z,76.10
2018-06-21T08:44:00.164Z,70.30
2018-06-21T08:45:00.155Z,71.20
2018-06-21T08:46:00.333Z,71.10
2018-06-21T08:47:00.202Z,71.70
2018-06-21T08:48:00.188Z,68.40
2018-06-21T08:49:00.227Z,69.70
2018-06-21T08:50:00.238Z,70.20
2018-06-21T08:51:00.375Z,71.40
2018-06-21T08:52:00.335Z,69.00
2018-06-21T08:53:00.270Z,70.90
2018-06-21T08:54:00.259Z,69.00
2018-06-21T08:55:00.266Z,70.00
2018-06-21T08:56:00.434Z,69.40
2018-06-21T08:57:00.319Z,69.10
2018-06-21T08:58:00.299Z,68.20
2018-06-21T08:59:00.313Z,70.40
2018-06-21T09:00:00.350Z,69.90
2018-06-21T09:01:00.463Z,73.40
2018-06-21T09:02:00.373Z,71.30
2018-06-21T09:03:00.372Z,72.70
2018-06-21T09:04:00.397Z,69.80
2018-06-21T09:05:00.420Z,71.40
2018-06-21T09:06:00.497Z,72.50
2018-06-21T09:07:00.434Z,73.50
2018-06-21T09:08:00.450Z,72.50
2018-06-21T09:09:00.425Z,72.90
2018-06-21T09:10:00.440Z,72.60
2018-06-21T09:11:00.600Z,73.80
2018-06-21T09:12:00.472Z,72.60
2018-06-21T09:13:00.491Z,71.90
2018-06-21T09:14:00.486Z,73.80
2018-06-21T09:15:00.497Z,79.70
2018-06-21T09:16:00.612Z,72.90
2018-06-21T09:17:00.548Z,78.10
2018-06-21T09:18:00.538Z,74.80
2018-06-21T09:19:00.554Z,89.80
2018-06-21T09:20:00.559Z,79.50
2018-06-21T09:21:00.696Z,75.80
2018-06-21T09:22:00.590Z,77.10
2018-06-21T09:23:00.619Z,78.50
2018-06-21T09:24:00.605Z,75.50
2018-06-21T09:25:00.625Z,72.10
2018-06-21T09:26:00.789Z,73.00
2018-06-21T09:27:00.646Z,74.50
2018-06-21T09:28:00.682Z,73.00
2018-06-21T09:29:00.656Z,75.70
2018-06-21T09:30:00.700Z,76.90
2018-06-21T09:31:00.792Z,76.60
2018-06-21T09:32:00.705Z,75.00
2018-06-21T09:33:00.724Z,73.90
2018-06-21T09:34:00.721Z,73.80
2018-06-21T09:35:00.751Z,72.70
2018-06-21T09:36:00.892Z,74.90
2018-06-21T09:37:00.752Z,72.60
2018-06-21T09:38:00.799Z,74.80
2018-06-21T09:39:00.807Z,74.30
2018-06-21T09:40:00.796Z,73.50
2018-06-21T09:41:00.902Z,73.40
2018-06-21T09:42:00.862Z,75.10
2018-06-21T09:43:00.841Z,72.20
2018-06-21T09:44:03.822Z,73.20
2018-06-21T09:45:00.854Z,72.50
2018-06-21T09:46:00.981Z,74.80
2018-06-21T09:47:00.874Z,76.10
2018-06-21T09:48:00.880Z,77.00
2018-06-21T09:49:00.907Z,74.40
2018-06-21T09:50:00.931Z,78.40
2018-06-21T09:51:01.013Z,78.20
2018-06-21T09:52:00.939Z,80.90
2018-06-21T09:53:00.944Z,83.00
2018-06-21T09:54:00.976Z,82.20
2018-06-21T09:55:00.970Z,83.10
2018-06-21T09:56:01.108Z,83.90
2018-06-21T09:57:00.983Z,84.50
2018-06-21T09:58:01.019Z,83.60
2018-06-21T09:59:01.001Z,83.00
2018-06-21T10:00:01.014Z,83.20
2018-06-21T10:01:01.062Z,82.10
2018-06-21T10:02:01.142Z,84.00
2018-06-21T10:03:01.062Z,81.80
2018-06-21T10:04:01.065Z,79.40
2018-06-21T10:05:01.102Z,80.20
2018-06-21T10:06:01.106Z,82.00
2018-06-21T10:07:01.280Z,78.90
2018-06-21T10:08:01.111Z,80.10
2018-06-21T10:09:01.147Z,77.60
2018-06-21T10:10:01.139Z,79.10
2018-06-21T10:11:01.171Z,79.10
2018-06-21T10:12:01.309Z,78.30
2018-06-21T10:13:01.176Z,74.60
2018-06-21T10:14:01.210Z,73.70
2018-06-21T10:15:01.218Z,79.40
2018-06-21T10:16:01.232Z,80.60
2018-06-21T10:17:01.313Z,78.80
2018-06-21T10:18:01.236Z,77.90
2018-06-21T10:19:01.252Z,71.10
2018-06-21T10:20:01.274Z,75.00
2018-06-21T10:21:01.278Z,73.80
2018-06-21T10:22:01.384Z,75.60
2018-06-21T10:23:01.310Z,73.10
2018-06-21T10:24:01.298Z,70.90
2018-06-21T10:25:01.334Z,71.20
2018-06-21T10:26:01.325Z,71.10
2018-06-21T10:27:01.433Z,68.70
2018-06-21T10:28:01.347Z,70.40
2018-06-21T10:29:01.380Z,71.00
2018-06-21T10:30:01.362Z,70.50
2018-06-21T10:31:01.406Z,68.60
2018-06-21T10:32:01.520Z,68.70
2018-06-21T10:33:01.431Z,70.20
2018-06-21T10:34:01.412Z,69.10
2018-06-21T10:35:01.499Z,70.10
2018-06-21T10:36:01.439Z,72.40
2018-06-21T10:37:01.604Z,70.50
2018-06-21T10:38:01.489Z,70.70
2018-06-21T10:39:01.500Z,72.30
2018-06-21T10:40:01.495Z,73.80
2018-06-21T10:41:01.502Z,71.20
2018-06-21T10:42:01.669Z,66.20
2018-06-21T10:43:01.550Z,66.10
2018-06-21T10:44:01.545Z,58.30
2018-06-21T10:45:01.572Z,58.50
2018-06-21T10:46:01.562Z,58.70
2018-06-21T10:47:01.700Z,55.40
2018-06-21T10:48:01.614Z,58.00
2018-06-21T10:49:01.698Z,55.00
2018-06-21T10:50:01.613Z,52.70
2018-06-21T10:51:01.646Z,50.80
2018-06-21T10:52:01.746Z,51.10
2018-06-21T10:53:01.681Z,49.90
2018-06-21T10:54:01.671Z,48.50
2018-06-21T10:55:01.708Z,45.60
2018-06-21T10:56:01.697Z,45.50
2018-06-21T10:57:01.862Z,46.90
2018-06-21T10:58:01.723Z,48.00
2018-06-21T10:59:01.768Z,47.10
2018-06-21T11:00:01.773Z,44.80
2018-06-21T11:01:01.764Z,46.10
2018-06-21T11:02:01.928Z,46.40
2018-06-21T11:03:01.818Z,44.70
2018-06-21T11:04:01.821Z,46.20
2018-06-21T11:05:01.845Z,46.10
2018-06-21T11:06:01.866Z,46.50
2018-06-21T11:07:02.006Z,46.10
2018-06-21T11:08:01.862Z,45.60
2018-06-21T11:09:01.900Z,47.50
2018-06-21T11:10:01.893Z,48.30
2018-06-21T11:11:01.928Z,47.80
2018-06-21T11:12:02.020Z,47.80
2018-06-21T11:13:01.935Z,49.60
2018-06-21T11:14:01.944Z,48.30
2018-06-21T11:15:01.964Z,48.80
2018-06-21T11:16:01.998Z,48.80
2018-06-21T11:17:02.265Z,50.30
2018-06-21T11:18:01.999Z,49.40
2018-06-21T11:19:02.017Z,49.20
2018-06-21T11:20:02.037Z,49.60
2018-06-21T11:21:02.048Z,49.00
2018-06-21T11:22:02.158Z,49.20
2018-06-21T11:23:02.106Z,51.80
2018-06-21T11:24:02.115Z,50.70
2018-06-21T11:25:02.107Z,47.60
2018-06-21T11:26:02.118Z,44.60
2018-06-21T11:27:02.258Z,43.10
2018-06-21T11:28:02.206Z,43.90
2018-06-21T11:29:02.179Z,46.40
2018-06-21T11:30:02.177Z,46.20
2018-06-21T11:31:02.225Z,48.80
2018-06-21T11:32:02.312Z,51.00
2018-06-21T11:33:02.232Z,52.10
2018-06-21T11:34:02.246Z,53.30
2018-06-21T11:35:02.259Z,51.00
2018-06-21T11:36:02.273Z,52.10
2018-06-21T11:37:02.396Z,52.00
2018-06-21T11:38:02.399Z,49.40
2018-06-21T11:39:02.349Z,48.90
2018-06-21T11:40:02.361Z,48.10
2018-06-21T11:41:02.365Z,46.30
2018-06-21T11:42:02.470Z,44.00
2018-06-21T11:43:02.390Z,44.70
2018-06-21T11:44:02.400Z,45.70
2018-06-21T11:45:02.445Z,43.80
2018-06-21T11:46:02.463Z,44.30
2018-06-21T11:47:02.579Z,44.30
2018-06-21T11:48:02.478Z,44.30
2018-06-21T11:49:02.512Z,40.60
2018-06-21T11:50:02.509Z,40.20
2018-06-21T11:51:02.542Z,42.10
2018-06-21T11:52:02.660Z,39.40
2018-06-21T11:53:02.567Z,39.70
2018-06-21T11:54:02.572Z,42.90
2018-06-21T11:55:02.610Z,41.20
2018-06-21T11:56:02.602Z,40.00
2018-06-21T11:57:02.774Z,37.90
2018-06-21T11:58:02.669Z,33.60
2018-06-21T11:59:02.680Z,32.40
2018-06-21T12:00:02.698Z,35.70
2018-06-21T12:01:02.689Z,36.80
2018-06-21T12:02:02.809Z,37.40
2018-06-21T12:03:02.726Z,39.10
2018-06-21T12:04:02.753Z,37.90
2018-06-21T12:05:02.788Z,39.40
2018-06-21T12:06:02.806Z,40.10
2018-06-21T12:07:02.921Z,37.70
2018-06-21T12:08:02.827Z,36.30
2018-06-21T12:09:02.859Z,36.20
2018-06-21T12:10:02.850Z,34.20
2018-06-21T12:11:02.925Z,31.40
2018-06-21T12:12:03.122Z,31.50
2018-06-21T12:13:02.984Z,32.30
2018-06-21T12:14:03.035Z,32.80
2018-06-21T12:15:02.993Z,32.00
2018-06-21T12:16:03.016Z,30.00
2018-06-21T12:17:03.035Z,27.30
2018-06-21T12:18:03.219Z,29.30
2018-06-21T12:19:03.096Z,28.00
2018-06-21T12:20:03.114Z,28.70
2018-06-21T12:21:03.113Z,30.60
2018-06-21T12:22:03.099Z,30.10
2018-06-21T12:23:03.187Z,30.30
2018-06-21T12:24:03.109Z,28.50
2018-06-21T12:25:03.155Z,29.30
2018-06-21T12:26:03.260Z,27.00
2018-06-21T12:27:03.181Z,28.20
2018-06-21T12:28:03.360Z,26.30
2018-06-21T12:29:03.201Z,27.20
2018-06-21T12:30:03.235Z,28.00
2018-06-21T12:31:03.239Z,27.00
2018-06-21T12:32:03.296Z,27.10
2018-06-21T12:33:03.413Z,27.90
2018-06-21T12:34:03.305Z,27.70
2018-06-21T12:35:03.350Z,27.80
2018-06-21T12:36:03.358Z,26.80
2018-06-21T12:37:03.389Z,27.90
2018-06-21T12:38:03.491Z,27.50
2018-06-21T12:39:03.407Z,27.00
2018-06-21T12:40:03.448Z,28.60
2018-06-21T12:41:03.452Z,30.40
2018-06-21T12:42:03.475Z,31.90
2018-06-21T12:43:03.634Z,31.10
2018-06-21T12:44:03.503Z,30.10
2018-06-21T12:45:03.540Z,29.60
2018-06-21T12:46:03.548Z,30.70
2018-06-21T12:47:03.567Z,27.40
2018-06-21T12:48:03.740Z,28.00
2018-06-21T12:49:03.625Z,28.20
2018-06-21T12:50:03.632Z,29.00
2018-06-21T12:51:03.660Z,26.50